Time;durP1;ratioP1;P1;durP2;ratioP2;P2;SDS_P1;SDS_P2;PMS_P1;PMS_P2;Temp;Humidity;BMP_temperature;BMP_pressure;BME280_temperature;BME280_humidity;BME280_pressure;Samples;Min_cycle;Max_cycle;Signal;HPM_P1;HPM_P2
2023/05/27 00:00:06;;;;;;;0.65;0.65;;;4.30;99.90;;;;;;4996423;28;20204;-67
2023/05/27 00:02:32;;;;;;;0.70;0.70;;;4.30;99.90;;;;;;4996015;28;20231;-67
2023/05/27 00:04:58;;;;;;;0.70;0.70;;;4.20;99.90;;;;;;4996370;28;20566;-67
2023/05/27 00:07:23;;;;;;;0.60;0.60;;;4.20;99.90;;;;;;4996060;28;20275;-67
2023/05/27 00:09:49;;;;;;;0.80;0.80;;;4.20;99.90;;;;;;4996240;28;20293;-67
2023/05/27 00:12:15;;;;;;;0.80;0.80;;;4.10;99.90;;;;;;4995576;28;20338;-67
2023/05/27 00:14:41;;;;;;;0.80;0.80;;;4.10;99.90;;;;;;4991743;28;20255;-68
2023/05/27 00:17:09;;;;;;;0.80;0.80;;;4.00;99.90;;;;;;4976880;28;20563;-68
2023/05/27 00:19:35;;;;;;;0.70;0.70;;;4.10;99.90;;;;;;4979173;28;20250;-67
2023/05/27 00:22:01;;;;;;;0.80;0.80;;;4.10;99.90;;;;;;4996256;28;20257;-68
2023/05/27 00:24:26;;;;;;;0.70;0.70;;;4.10;99.90;;;;;;4996274;28;20200;-67
2023/05/27 00:26:52;;;;;;;0.80;0.80;;;4.00;99.90;;;;;;4996382;28;20196;-67
2023/05/27 00:29:18;;;;;;;0.80;0.80;;;4.10;99.90;;;;;;4996394;28;20700;-67
2023/05/27 00:31:44;;;;;;;0.80;0.80;;;4.10;99.90;;;;;;4996328;28;20261;-67
2023/05/27 00:34:10;;;;;;;0.80;0.80;;;4.00;99.90;;;;;;4996033;28;20195;-67
2023/05/27 00:36:36;;;;;;;1.90;1.80;;;4.00;99.90;;;;;;4996137;28;20199;-67
2023/05/27 00:39:02;;;;;;;0.80;0.80;;;3.90;99.90;;;;;;4996189;28;20233;-67
2023/05/27 00:41:28;;;;;;;0.70;0.70;;;3.90;99.90;;;;;;4995782;28;20666;-69
2023/05/27 00:43:56;;;;;;;0.80;0.80;;;3.80;99.90;;;;;;4994835;28;20198;-67
2023/05/27 00:46:21;;;;;;;0.80;0.80;;;3.80;99.90;;;;;;4995461;28;20283;-67
2023/05/27 00:48:48;;;;;;;0.77;0.77;;;3.80;99.90;;;;;;4995654;28;20326;-67
2023/05/27 00:51:15;;;;;;;0.80;0.80;;;3.80;99.90;;;;;;4995534;28;20622;-67
2023/05/27 00:53:42;;;;;;;0.75;0.75;;;3.80;99.90;;;;;;4995245;28;20681;-67
2023/05/27 00:56:15;;;;;;;0.90;0.90;;;3.70;99.90;;;;;;4995426;28;20191;-67
2023/05/27 00:58:42;;;;;;;0.70;0.70;;;3.70;99.90;;;;;;4995312;28;20341;-67
2023/05/27 01:01:07;;;;;;;0.77;0.77;;;3.70;99.90;;;;;;4995531;28;20616;-67
2023/05/27 01:03:34;;;;;;;0.80;0.80;;;3.70;99.90;;;;;;5004246;23;20205;-71
2023/05/27 01:06:25;;;;;;;0.70;0.70;;;3.70;99.90;;;;;;5032722;28;20276;-71
2023/05/27 01:09:20;;;;;;;0.80;0.80;;;3.60;99.90;;;;;;4997478;28;20685;-71
2023/05/27 01:12:02;;;;;;;0.70;0.70;;;3.60;99.90;;;;;;5015334;28;20206;-72
2023/05/27 01:14:31;;;;;;;0.70;0.70;;;3.60;99.90;;;;;;5014641;28;20187;-72
2023/05/27 01:17:00;;;;;;;0.70;0.70;;;3.60;99.90;;;;;;5015261;28;20195;-71
2023/05/27 01:19:44;;;;;;;0.70;0.70;;;3.50;99.90;;;;;;5015008;28;20194;-71
2023/05/27 01:22:12;;;;;;;0.80;0.80;;;3.50;99.90;;;;;;5015590;28;20699;-71
2023/05/27 01:24:38;;;;;;;0.73;0.73;;;3.50;99.90;;;;;;5014189;28;20199;-71
2023/05/27 01:27:04;;;;;;;0.80;0.80;;;3.40;99.90;;;;;;5014838;28;20221;-71
2023/05/27 01:29:31;;;;;;;0.80;0.80;;;3.40;99.90;;;;;;5023726;28;20324;-71
2023/05/27 01:32:02;;;;;;;0.70;0.70;;;3.30;99.90;;;;;;5034275;28;20206;-72
2023/05/27 01:34:35;;;;;;;0.80;0.80;;;3.30;99.90;;;;;;5034324;28;20213;-71
2023/05/27 01:37:06;;;;;;;2.25;1.55;;;3.30;99.90;;;;;;5034581;28;20191;-71
2023/05/27 01:39:33;;;;;;;0.70;0.70;;;3.30;99.90;;;;;;5034484;28;20198;-71
2023/05/27 01:42:01;;;;;;;0.80;0.80;;;3.30;99.90;;;;;;5034095;28;20665;-71
2023/05/27 01:44:30;;;;;;;0.70;0.70;;;3.30;99.90;;;;;;5016339;28;20195;-71
2023/05/27 01:47:02;;;;;;;0.70;0.70;;;3.30;99.90;;;;;;5034565;28;20202;-71
2023/05/27 01:49:29;;;;;;;0.75;0.75;;;3.20;99.90;;;;;;5033995;28;20205;-71
2023/05/27 01:51:55;;;;;;;0.70;0.70;;;3.20;99.90;;;;;;5034067;28;20241;-72
2023/05/27 01:54:21;;;;;;;0.80;0.80;;;3.20;99.90;;;;;;5032899;28;20225;-71
2023/05/27 01:56:47;;;;;;;0.70;0.70;;;3.20;99.90;;;;;;5033962;28;20233;-72
2023/05/27 01:59:12;;;;;;;0.80;0.80;;;3.20;99.90;;;;;;5015987;28;20198;-72
2023/05/27 02:01:38;;;;;;;0.80;0.80;;;3.20;99.90;;;;;;5033097;28;20206;-71
2023/05/27 02:04:04;;;;;;;0.70;0.70;;;3.20;99.90;;;;;;5017795;28;20617;-71
2023/05/27 02:06:32;;;;;;;0.70;0.70;;;3.10;99.90;;;;;;5033099;28;20213;-71
2023/05/27 02:08:57;;;;;;;0.70;0.70;;;3.10;99.90;;;;;;5033889;28;20194;-71
2023/05/27 02:11:23;;;;;;;0.80;0.80;;;3.10;99.90;;;;;;5033483;28;20213;-71
2023/05/27 02:13:49;;;;;;;0.80;0.80;;;3.00;99.90;;;;;;5034157;28;20277;-71
2023/05/27 02:16:15;;;;;;;0.77;0.77;;;3.00;99.90;;;;;;5033387;28;20665;-71
2023/05/27 02:18:41;;;;;;;0.80;0.80;;;3.00;99.90;;;;;;5033372;28;20269;-71
2023/05/27 02:21:07;;;;;;;1.58;1.38;;;2.90;99.90;;;;;;5033454;28;20224;-71
2023/05/27 02:23:33;;;;;;;0.80;0.80;;;2.90;99.90;;;;;;5033154;28;20302;-71
2023/05/27 02:26:00;;;;;;;0.80;0.80;;;2.90;99.90;;;;;;5032060;28;20289;-71
2023/05/27 02:28:29;;;;;;;0.70;0.70;;;2.90;99.90;;;;;;5032939;28;20296;-71
2023/05/27 02:30:58;;;;;;;0.90;0.90;;;2.90;99.90;;;;;;5033259;28;20548;-71
2023/05/27 02:33:23;;;;;;;0.80;0.80;;;2.80;99.90;;;;;;5032930;28;20218;-71
2023/05/27 02:35:49;;;;;;;0.80;0.80;;;2.80;99.90;;;;;;5033160;28;20226;-71
2023/05/27 02:38:15;;;;;;;0.85;0.85;;;2.80;99.90;;;;;;5033283;28;20202;-72
2023/05/27 02:40:41;;;;;;;0.80;0.80;;;2.80;99.90;;;;;;5032821;28;20210;-71
2023/05/27 02:43:09;;;;;;;0.70;0.70;;;2.80;99.90;;;;;;5033414;28;20252;-71
2023/05/27 02:45:35;;;;;;;0.80;0.80;;;2.80;99.90;;;;;;5032206;28;20194;-71
2023/05/27 02:48:03;;;;;;;0.80;0.80;;;2.80;99.90;;;;;;5032714;28;20694;-71
2023/05/27 02:50:29;;;;;;;0.77;0.77;;;2.80;99.90;;;;;;5032769;28;20198;-71
2023/05/27 02:52:55;;;;;;;0.70;0.70;;;2.70;99.90;;;;;;5032883;28;20573;-71
2023/05/27 02:55:20;;;;;;;0.80;0.80;;;2.70;99.90;;;;;;5031434;28;20236;-70
2023/05/27 02:57:46;;;;;;;0.80;0.80;;;2.60;99.90;;;;;;5032743;28;20198;-71
2023/05/27 03:00:13;;;;;;;0.70;0.70;;;2.70;99.90;;;;;;5031624;28;20198;-71
2023/05/27 03:02:39;;;;;;;0.70;0.70;;;2.70;99.90;;;;;;5039460;28;20652;-72
2023/05/27 03:05:05;;;;;;;0.70;0.70;;;2.70;99.90;;;;;;5046774;28;20232;-71
2023/05/27 03:07:31;;;;;;;0.60;0.60;;;2.70;99.90;;;;;;5052468;28;20204;-71
2023/05/27 03:09:57;;;;;;;0.80;0.80;;;2.70;99.90;;;;;;5052685;28;20202;-71
2023/05/27 03:12:23;;;;;;;0.80;0.80;;;2.80;99.90;;;;;;5052342;28;20712;-71
2023/05/27 03:14:50;;;;;;;0.80;0.80;;;2.80;99.90;;;;;;5052601;28;20189;-71
2023/05/27 03:17:17;;;;;;;0.70;0.70;;;2.90;99.90;;;;;;5052483;28;20197;-71
2023/05/27 03:19:43;;;;;;;0.80;0.80;;;2.90;99.90;;;;;;5052330;28;20243;-71
2023/05/27 03:22:09;;;;;;;0.70;0.70;;;3.00;99.90;;;;;;5052310;28;20276;-71
2023/05/27 03:24:35;;;;;;;0.70;0.70;;;3.00;99.90;;;;;;5052156;28;20269;-71
2023/05/27 03:27:03;;;;;;;0.80;0.80;;;3.10;99.90;;;;;;5012262;28;20198;-71
2023/05/27 03:29:29;;;;;;;0.80;0.80;;;3.20;99.90;;;;;;5012382;28;20778;-71
2023/05/27 03:31:55;;;;;;;0.80;0.80;;;3.30;99.90;;;;;;4995367;28;20269;-71
2023/05/27 03:34:21;;;;;;;0.80;0.80;;;3.40;99.90;;;;;;5011078;28;20198;-71
2023/05/27 03:36:46;;;;;;;0.80;0.80;;;3.50;99.90;;;;;;5032502;28;20201;-72
2023/05/27 03:39:13;;;;;;;0.70;0.70;;;3.70;99.90;;;;;;5014780;28;20194;-71
2023/05/27 03:41:38;;;;;;;0.70;0.70;;;3.80;99.90;;;;;;5032234;28;20699;-71
2023/05/27 03:44:04;;;;;;;0.70;0.70;;;3.80;99.90;;;;;;5032407;28;20206;-71
2023/05/27 03:46:30;;;;;;;0.80;0.80;;;3.90;99.90;;;;;;5032316;28;20198;-71
2023/05/27 03:48:56;;;;;;;0.80;0.80;;;4.10;99.90;;;;;;5032811;28;20197;-71
2023/05/27 03:51:21;;;;;;;0.70;0.70;;;4.20;99.90;;;;;;5032348;28;20281;-71
2023/05/27 03:53:47;;;;;;;0.70;0.70;;;4.40;99.90;;;;;;5014564;28;20198;-71
2023/05/27 03:56:13;;;;;;;0.88;0.88;;;4.60;99.90;;;;;;5032204;28;20646;-71
2023/05/27 03:58:39;;;;;;;0.80;0.80;;;4.80;99.90;;;;;;5032236;28;20244;-71
2023/05/27 04:01:05;;;;;;;0.70;0.70;;;5.00;99.90;;;;;;5032405;28;20194;-71
2023/05/27 04:03:31;;;;;;;0.80;0.80;;;5.20;99.90;;;;;;5031693;28;20198;-72
2023/05/27 04:05:58;;;;;;;0.80;0.80;;;5.40;99.90;;;;;;5031923;28;20541;-72
2023/05/27 04:08:26;;;;;;;0.70;0.70;;;5.50;99.90;;;;;;5032022;28;20625;-71
2023/05/27 04:10:53;;;;;;;0.70;0.70;;;5.70;99.90;;;;;;5014493;28;20279;-71
2023/05/27 04:13:18;;;;;;;0.70;0.70;;;5.90;99.90;;;;;;5031951;28;20589;-71
2023/05/27 04:15:44;;;;;;;0.75;0.75;;;6.00;99.90;;;;;;5014344;28;20228;-71
2023/05/27 04:18:10;;;;;;;0.60;0.60;;;6.20;99.90;;;;;;5016475;28;20205;-72
2023/05/27 04:20:42;;;;;;;0.70;0.70;;;6.20;99.90;;;;;;5035763;28;20198;-71
2023/05/27 04:23:08;;;;;;;0.70;0.70;;;6.30;99.90;;;;;;5017061;28;20233;-71
2023/05/27 04:25:40;;;;;;;0.90;0.90;;;6.30;99.90;;;;;;5015619;28;20202;-71
2023/05/27 04:28:06;;;;;;;1.05;0.98;;;6.30;99.90;;;;;;5015855;28;20684;-71
2023/05/27 04:30:33;;;;;;;0.60;0.60;;;6.40;99.90;;;;;;5015479;28;20250;-71
2023/05/27 04:33:00;;;;;;;0.70;0.70;;;6.40;99.90;;;;;;4998071;28;20234;-71
2023/05/27 04:35:26;;;;;;;0.90;0.90;;;6.40;99.90;;;;;;5015634;28;20183;-71
2023/05/27 04:37:51;;;;;;;0.70;0.70;;;6.40;99.90;;;;;;4997993;28;20199;-71
2023/05/27 04:40:17;;;;;;;0.70;0.70;;;6.50;99.90;;;;;;5016251;28;20201;-72
2023/05/27 04:42:43;;;;;;;0.68;0.68;;;6.50;99.90;;;;;;4998123;28;20186;-71
2023/05/27 04:45:12;;;;;;;0.70;0.70;;;6.60;99.90;;;;;;5015101;28;20207;-72
2023/05/27 04:47:40;;;;;;;0.70;0.70;;;6.70;99.90;;;;;;4997773;28;20214;-72
2023/05/27 04:50:13;;;;;;;0.70;0.70;;;7.00;99.90;;;;;;5014781;28;20219;-71
2023/05/27 04:52:40;;;;;;;0.60;0.60;;;7.20;99.90;;;;;;4997002;28;20582;-71
2023/05/27 04:55:08;;;;;;;0.70;0.70;;;7.40;99.90;;;;;;5019742;28;20681;-72
2023/05/27 04:57:35;;;;;;;0.70;0.70;;;7.60;99.90;;;;;;5034984;28;20213;-71
2023/05/27 05:02:38;;;;;;;0.68;0.68;;;7.80;99.90;;;;;;5034778;28;20223;-72
2023/05/27 05:05:06;;;;;;;0.65;0.65;;;7.90;99.90;;;;;;5016497;28;20632;-72
2023/05/27 05:07:43;;;;;;;0.70;0.70;;;8.00;99.90;;;;;;5034687;28;20186;-72
2023/05/27 05:10:10;;;;;;;0.80;0.80;;;8.00;99.90;;;;;;5034710;28;20656;-72
2023/05/27 05:12:36;;;;;;;0.98;0.98;;;8.00;99.90;;;;;;5034553;28;20232;-72
2023/05/27 05:15:02;;;;;;;0.70;0.70;;;8.00;99.90;;;;;;5035137;28;20193;-71
2023/05/27 05:17:28;;;;;;;0.70;0.70;;;8.30;99.90;;;;;;5031192;28;20187;-72
2023/05/27 05:19:54;;;;;;;0.70;0.70;;;8.50;99.90;;;;;;4997632;28;20626;-72
2023/05/27 05:22:22;;;;;;;0.70;0.70;;;8.80;99.90;;;;;;5014536;28;20605;-71
2023/05/27 05:24:49;;;;;;;0.60;0.60;;;9.10;99.90;;;;;;5014836;28;20682;-72
2023/05/27 05:27:15;;;;;;;0.85;0.85;;;9.40;99.90;;;;;;5014530;28;20226;-72
2023/05/27 05:29:41;;;;;;;0.80;0.80;;;9.60;99.90;;;;;;5014516;28;20310;-72
2023/05/27 05:32:08;;;;;;;0.70;0.70;;;9.80;99.90;;;;;;4997045;28;20217;-72
2023/05/27 05:34:34;;;;;;;0.50;0.50;;;10.10;99.90;;;;;;5014399;28;20265;-72
2023/05/27 05:37:00;;;;;;;0.70;0.70;;;10.40;99.90;;;;;;5013001;28;20206;-72
2023/05/27 05:39:26;;;;;;;0.60;0.60;;;10.50;99.90;;;;;;5013592;28;20249;-71
2023/05/27 05:41:51;;;;;;;0.50;0.50;;;10.60;99.90;;;;;;4996695;28;20203;-72
2023/05/27 05:44:17;;;;;;;0.45;0.45;;;11.00;99.90;;;;;;5014149;28;20563;-72
2023/05/27 05:46:43;;;;;;;0.50;0.50;;;11.30;99.90;;;;;;4996412;28;20202;-72
2023/05/27 05:49:09;;;;;;;0.50;0.50;;;11.60;99.90;;;;;;4996537;28;20565;-72
2023/05/27 05:51:35;;;;;;;0.50;0.50;;;11.60;99.90;;;;;;5019579;28;20569;-73
2023/05/27 05:54:01;;;;;;;0.50;0.50;;;11.50;99.90;;;;;;5034068;28;20194;-72
2023/05/27 05:56:27;;;;;;;0.50;0.50;;;11.50;99.90;;;;;;5033716;28;20243;-72
2023/05/27 05:58:53;;;;;;;0.40;0.40;;;11.50;99.90;;;;;;5033890;28;20261;-72
2023/05/27 06:01:19;;;;;;;0.40;0.40;;;11.50;99.90;;;;;;5016060;28;20659;-67
2023/05/27 06:03:45;;;;;;;0.50;0.50;;;11.60;99.90;;;;;;5015481;28;20230;-72
2023/05/27 06:06:11;;;;;;;0.43;0.43;;;11.70;99.90;;;;;;5033857;28;20633;-72
2023/05/27 06:08:37;;;;;;;0.50;0.50;;;11.60;99.90;;;;;;5033612;28;20741;-72
2023/05/27 06:11:03;;;;;;;0.50;0.50;;;11.70;99.90;;;;;;5034007;28;20376;-72
2023/05/27 06:13:28;;;;;;;0.60;0.60;;;11.60;99.90;;;;;;5014346;28;20222;-73
2023/05/27 06:15:55;;;;;;;0.50;0.50;;;11.60;99.90;;;;;;5015537;28;20668;-73
2023/05/27 06:18:21;;;;;;;0.40;0.40;;;11.60;99.90;;;;;;5017240;28;20557;-72
2023/05/27 06:20:47;;;;;;;0.50;0.50;;;11.80;99.90;;;;;;5013805;28;20246;-73
2023/05/27 06:23:13;;;;;;;0.40;0.40;;;11.90;99.90;;;;;;5013666;28;20715;-73
2023/05/27 06:25:38;;;;;;;0.50;0.50;;;12.00;99.90;;;;;;5013247;28;20233;-73
2023/05/27 06:28:05;;;;;;;0.47;0.47;;;12.10;99.90;;;;;;5012545;28;20269;-73
2023/05/27 06:30:32;;;;;;;0.60;0.60;;;12.10;99.90;;;;;;5012489;28;20201;-72
2023/05/27 06:32:58;;;;;;;0.40;0.40;;;12.20;99.90;;;;;;5012773;28;20205;-73
2023/05/27 06:35:24;;;;;;;0.50;0.50;;;12.40;99.90;;;;;;5012502;28;20673;-72
2023/05/27 06:37:49;;;;;;;0.50;0.50;;;12.70;99.90;;;;;;4994717;28;20670;-72
2023/05/27 06:40:15;;;;;;;0.70;0.70;;;12.90;99.90;;;;;;5012146;28;20199;-73
2023/05/27 06:42:43;;;;;;;0.40;0.40;;;13.20;99.90;;;;;;5012201;28;20221;-73
2023/05/27 06:45:09;;;;;;;0.40;0.40;;;13.40;99.90;;;;;;5012004;28;20221;-73
2023/05/27 06:47:35;;;;;;;0.50;0.50;;;13.70;99.90;;;;;;5016408;28;20585;-73
2023/05/27 06:50:01;;;;;;;0.52;0.52;;;14.00;99.90;;;;;;5014366;28;20186;-72
2023/05/27 06:52:26;;;;;;;0.50;0.50;;;13.90;99.90;;;;;;5031804;28;20738;-72
2023/05/27 06:54:52;;;;;;;0.40;0.40;;;13.90;99.90;;;;;;5032127;28;20217;-72
2023/05/27 06:57:18;;;;;;;0.47;0.47;;;14.00;99.90;;;;;;5031024;28;20670;-71
2023/05/27 06:59:43;;;;;;;1.95;0.80;;;14.20;99.90;;;;;;5031872;28;20205;-73
2023/05/27 07:02:09;;;;;;;0.50;0.50;;;14.30;99.90;;;;;;5013680;28;20198;-72
2023/05/27 07:04:38;;;;;;;0.60;0.60;;;14.30;99.90;;;;;;5013860;28;20234;-72
2023/05/27 07:07:04;;;;;;;0.60;0.60;;;14.30;99.90;;;;;;5032893;28;20273;-73
2023/05/27 07:09:30;;;;;;;0.30;0.30;;;14.30;99.90;;;;;;5032421;28;20190;-72
2023/05/27 07:11:55;;;;;;;0.40;0.40;;;14.20;99.90;;;;;;5013468;28;20298;-72
2023/05/27 07:14:21;;;;;;;0.50;0.50;;;14.40;99.90;;;;;;5012828;28;20603;-73
2023/05/27 07:16:47;;;;;;;0.47;0.47;;;14.70;99.90;;;;;;5013343;28;20662;-73
2023/05/27 07:19:13;;;;;;;0.40;0.40;;;15.10;99.90;;;;;;5013258;28;20614;-72
2023/05/27 07:21:38;;;;;;;1.67;0.75;;;15.30;99.90;;;;;;5013676;28;20206;-75
2023/05/27 07:24:04;;;;;;;0.38;0.38;;;15.50;99.90;;;;;;4996377;28;20195;-75
2023/05/27 07:26:34;;;;;;;0.40;0.40;;;15.60;99.90;;;;;;5013951;28;20199;-73
2023/05/27 07:29:00;;;;;;;0.30;0.30;;;15.70;99.90;;;;;;5013693;28;20662;-74
2023/05/27 07:31:27;;;;;;;0.45;0.45;;;15.90;99.90;;;;;;5014130;28;20206;-75
2023/05/27 07:33:53;;;;;;;0.50;0.50;;;15.90;99.90;;;;;;5013453;28;20560;-75
2023/05/27 07:36:19;;;;;;;1.30;0.70;;;15.80;99.90;;;;;;4995108;28;20692;-73
2023/05/27 07:38:46;;;;;;;0.32;0.32;;;15.80;99.90;;;;;;4995476;28;20199;-73
2023/05/27 07:41:12;;;;;;;1.05;0.75;;;16.00;99.90;;;;;;5013011;28;20189;-74
2023/05/27 07:43:38;;;;;;;0.50;0.50;;;16.30;99.90;;;;;;5014847;28;20683;-75
2023/05/27 07:46:03;;;;;;;0.50;0.50;;;17.00;99.90;;;;;;5015146;28;20190;-76
2023/05/27 07:48:29;;;;;;;0.20;0.20;;;16.90;98.60;;;;;;5032549;28;20191;-75
2023/05/27 07:50:58;;;;;;;1.00;0.70;;;17.00;99.90;;;;;;5032126;28;20478;-77
2023/05/27 07:53:24;;;;;;;0.10;0.10;;;17.30;99.10;;;;;;5017109;28;20268;-74
2023/05/27 07:55:50;;;;;;;0.13;0.13;;;17.70;99.90;;;;;;5036736;28;20191;-75
2023/05/27 07:58:15;;;;;;;0.05;0.05;;;18.00;97.10;;;;;;5036989;28;20240;-76
2023/05/27 08:00:44;;;;;;;0.20;0.20;;;18.00;93.90;;;;;;5018686;28;20194;-74
2023/05/27 08:03:10;;;;;;;0.28;0.28;;;18.30;97.00;;;;;;5018321;28;20225;-71
2023/05/27 08:05:36;;;;;;;0.20;0.20;;;18.60;95.20;;;;;;5017549;28;20240;-72
2023/05/27 08:08:02;;;;;;;0.10;0.10;;;19.00;92.80;;;;;;5017035;28;20191;-76
2023/05/27 08:10:28;;;;;;;0.28;0.25;;;19.10;94.40;;;;;;5015390;28;20205;-77
2023/05/27 08:12:53;;;;;;;0.10;0.10;;;18.60;93.20;;;;;;5015956;28;20210;-76
2023/05/27 08:15:19;;;;;;;0.10;0.10;;;18.70;95.50;;;;;;5015443;28;20256;-79
2023/05/27 08:17:45;;;;;;;0.08;0.08;;;18.80;93.40;;;;;;5014907;28;20183;-79
2023/05/27 08:20:12;;;;;;;0.43;0.30;;;19.30;92.90;;;;;;5015661;28;20666;-78
2023/05/27 08:22:37;;;;;;;0.38;0.32;;;19.60;94.80;;;;;;5014920;28;20194;-74
2023/05/27 08:25:04;;;;;;;0.20;0.20;;;19.90;94.80;;;;;;5015128;28;20202;-75
2023/05/27 08:27:50;;;;;;;0.20;0.20;;;19.60;93.50;;;;;;5014645;28;20199;-74
2023/05/27 08:30:16;;;;;;;0.10;0.10;;;18.70;92.50;;;;;;5015435;28;20195;-75
2023/05/27 08:32:42;;;;;;;0.10;0.10;;;18.20;94.20;;;;;;5015045;28;20257;-78
2023/05/27 08:35:08;;;;;;;0.20;0.20;;;18.00;96.00;;;;;;5014797;28;20269;-76
2023/05/27 08:37:34;;;;;;;0.30;0.30;;;18.00;95.10;;;;;;5014798;28;20504;-74
2023/05/27 08:40:00;;;;;;;0.10;0.10;;;18.00;95.70;;;;;;5032876;28;20194;-75
2023/05/27 08:42:26;;;;;;;0.70;0.43;;;18.60;96.40;;;;;;5034212;28;20699;-75
2023/05/27 08:44:52;;;;;;;0.08;0.08;;;19.50;95.90;;;;;;5002659;28;20218;-73
2023/05/27 08:47:18;;;;;;;0.10;0.10;;;19.60;95.10;;;;;;4996752;28;20207;-74
2023/05/27 08:49:45;;;;;;;0.20;0.20;;;19.50;94.20;;;;;;5015180;28;20261;-73
2023/05/27 08:52:14;;;;;;;0.10;0.10;;;19.00;92.70;;;;;;5014413;28;20290;-76
2023/05/27 08:54:41;;;;;;;0.00;0.00;;;18.60;92.90;;;;;;4996536;28;20195;-74
2023/05/27 08:57:09;;;;;;;0.10;0.10;;;18.70;94.00;;;;;;4996689;28;20203;-74
2023/05/27 08:59:36;;;;;;;0.00;0.00;;;19.10;94.70;;;;;;5013801;28;20195;-76
2023/05/27 09:02:05;;;;;;;0.10;0.10;;;19.40;93.50;;;;;;5034161;22;20238;-76
2023/05/27 09:04:34;;;;;;;0.10;0.10;;;19.90;94.40;;;;;;5014988;28;20194;-76
2023/05/27 09:07:00;;;;;;;0.00;0.00;;;20.20;92.20;;;;;;5015267;28;20191;-77
2023/05/27 09:09:26;;;;;;;0.10;0.10;;;20.00;92.70;;;;;;4997643;28;20195;-74
2023/05/27 09:11:52;;;;;;;0.15;0.15;;;19.50;92.10;;;;;;5031506;28;20711;-78
2023/05/27 09:14:21;;;;;;;0.20;0.20;;;19.90;92.20;;;;;;5033529;28;20241;-76
2023/05/27 09:16:47;;;;;;;0.05;0.05;;;19.40;92.70;;;;;;5034813;28;20229;-75
2023/05/27 09:19:17;;;;;;;0.00;0.00;;;19.50;92.50;;;;;;5034915;28;20279;-76
2023/05/27 09:21:43;;;;;;;0.00;0.00;;;19.90;92.80;;;;;;5034330;28;20293;-74
2023/05/27 09:24:10;;;;;;;0.10;0.10;;;20.10;90.30;;;;;;5015476;28;20311;-75
2023/05/27 09:26:37;;;;;;;0.00;0.00;;;20.70;92.00;;;;;;5034258;28;20236;-75
2023/05/27 09:29:07;;;;;;;0.10;0.10;;;20.90;91.20;;;;;;5016233;28;20198;-77
2023/05/27 09:31:39;;;;;;;0.00;0.00;;;21.00;91.60;;;;;;5033285;28;20284;-76
2023/05/27 09:34:15;;;;;;;5.20;0.50;;;21.60;91.40;;;;;;5033812;28;20233;-79
2023/05/27 09:36:51;;;;;;;0.00;0.00;;;22.50;92.10;;;;;;5033072;28;20522;-75
2023/05/27 09:39:20;;;;;;;0.00;0.00;;;22.70;88.00;;;;;;5027229;28;20204;-76
2023/05/27 09:41:52;;;;;;;0.05;0.05;;;22.70;89.00;;;;;;5035733;28;20779;-75
2023/05/27 09:44:18;;;;;;;0.00;0.00;;;22.10;87.20;;;;;;5043968;28;20288;-76
2023/05/27 09:46:47;;;;;;;0.10;0.10;;;21.80;89.00;;;;;;5033215;28;20659;-81
2023/05/27 09:49:15;;;;;;;0.10;0.10;;;21.60;88.80;;;;;;5015283;28;20194;-77
2023/05/27 09:51:41;;;;;;;0.05;0.05;;;21.70;90.00;;;;;;5015042;28;20210;-76
2023/05/27 09:54:08;;;;;;;0.10;0.10;;;21.70;90.40;;;;;;5032845;28;20193;-75
2023/05/27 09:56:35;;;;;;;0.10;0.10;;;21.10;87.30;;;;;;5032679;28;20194;-75
2023/05/27 09:59:01;;;;;;;0.22;0.22;;;21.40;91.60;;;;;;5031135;28;20190;-76
2023/05/27 10:01:29;;;;;;;0.45;0.45;;;21.90;88.80;;;;;;5014162;28;20237;-78
2023/05/27 10:03:56;;;;;;;0.13;0.13;;;21.70;89.30;;;;;;5015466;28;20438;-77
2023/05/27 10:06:24;;;;;;;0.20;0.20;;;22.20;88.60;;;;;;5032427;28;20193;-76
2023/05/27 10:08:52;;;;;;;0.00;0.00;;;22.60;87.50;;;;;;5014763;28;20282;-76
2023/05/27 10:11:18;;;;;;;0.03;0.03;;;22.90;84.60;;;;;;5032201;28;20701;-75
2023/05/27 10:13:45;;;;;;;0.10;0.10;;;23.40;86.80;;;;;;5032624;28;20195;-75
2023/05/27 10:16:22;;;;;;;0.00;0.00;;;23.70;84.70;;;;;;5013788;28;20611;-76
2023/05/27 10:18:54;;;;;;;0.20;0.20;;;23.60;85.60;;;;;;5013243;28;20197;-76
2023/05/27 10:21:22;;;;;;;0.20;0.20;;;23.80;81.80;;;;;;5012511;28;20669;-76
2023/05/27 10:23:59;;;;;;;0.00;0.00;;;24.40;82.10;;;;;;5012569;28;20193;-76
2023/05/27 10:27:02;;;;;;;0.60;0.22;;;24.30;82.50;;;;;;5013188;28;20607;-76
2023/05/27 10:29:39;;;;;;;0.15;0.15;;;24.80;82.10;;;;;;4994853;28;20225;-77
2023/05/27 10:32:08;;;;;;;0.00;0.00;;;24.70;76.30;;;;;;4995329;28;20214;-75
2023/05/27 10:34:35;;;;;;;0.10;0.10;;;24.00;77.90;;;;;;5012364;28;20202;-79
2023/05/27 10:37:00;;;;;;;4.03;0.28;;;23.60;77.50;;;;;;5022011;28;20248;-76
2023/05/27 10:39:26;;;;;;;0.00;0.00;;;23.40;78.30;;;;;;5031883;28;20206;-75
2023/05/27 10:41:53;;;;;;;0.03;0.03;;;23.20;78.90;;;;;;5032296;28;20609;-77
2023/05/27 10:44:39;;;;;;;0.20;0.20;;;23.10;78.10;;;;;;5033409;28;20198;-76
2023/05/27 10:47:10;;;;;;;0.30;0.30;;;22.90;80.10;;;;;;5015066;28;20202;-74
2023/05/27 10:49:38;;;;;;;0.17;0.17;;;23.20;80.20;;;;;;5014345;28;20745;-74
2023/05/27 10:52:15;;;;;;;0.28;0.20;;;23.20;82.70;;;;;;5014761;28;20300;-75
2023/05/27 10:54:46;;;;;;;0.32;0.20;;;23.50;79.10;;;;;;5014314;28;20222;-74
2023/05/27 10:57:12;;;;;;;0.10;0.10;;;23.50;77.30;;;;;;5014324;28;20214;-77
2023/05/27 10:59:52;;;;;;;0.00;0.00;;;23.10;78.00;;;;;;5031691;28;20272;-74
2023/05/27 11:02:20;;;;;;;0.05;0.05;;;21.80;80.00;;;;;;4997397;28;20250;-74
2023/05/27 11:04:47;;;;;;;0.20;0.20;;;22.30;79.60;;;;;;4992940;28;20642;-73
2023/05/27 11:07:17;;;;;;;0.00;0.00;;;22.40;81.00;;;;;;4992388;28;20637;-74
2023/05/27 11:10:01;;;;;;;0.08;0.08;;;22.80;79.60;;;;;;4992567;28;20234;-76
2023/05/27 11:12:27;;;;;;;1.10;0.47;;;23.50;79.30;;;;;;4992199;28;20211;-74
2023/05/27 11:14:55;;;;;;;0.00;0.00;;;24.00;78.70;;;;;;4991410;28;20206;-74
2023/05/27 11:17:22;;;;;;;0.40;0.28;;;24.30;79.00;;;;;;4992312;28;20273;-75
2023/05/27 11:19:49;;;;;;;0.32;0.30;;;24.20;75.80;;;;;;4993758;28;20219;-76
2023/05/27 11:22:16;;;;;;;0.00;0.00;;;23.60;76.60;;;;;;4992767;28;20215;-76
2023/05/27 11:24:43;;;;;;;0.10;0.10;;;23.40;77.10;;;;;;4993376;28;20231;-75
2023/05/27 11:27:12;;;;;;;0.25;0.22;;;23.70;81.90;;;;;;4994272;28;20196;-76
2023/05/27 11:29:39;;;;;;;0.20;0.20;;;24.10;79.30;;;;;;4995976;28;20207;-75
2023/05/27 11:32:06;;;;;;;0.10;0.10;;;24.00;76.80;;;;;;4997213;28;20254;-78
2023/05/27 11:34:34;;;;;;;0.10;0.10;;;23.60;76.50;;;;;;4996803;28;20684;-79
2023/05/27 11:37:05;;;;;;;0.80;0.38;;;23.30;77.20;;;;;;4995204;28;20214;-80
2023/05/27 11:39:37;;;;;;;0.17;0.08;;;23.20;76.80;;;;;;4995245;28;20195;-81
2023/05/27 11:42:11;;;;;;;0.00;0.00;;;22.80;77.50;;;;;;4995402;28;20219;-87
2023/05/27 11:44:37;;;;;;;0.45;0.45;;;23.10;79.00;;;;;;4996358;28;20202;-79
2023/05/27 11:47:06;;;;;;;0.08;0.08;;;23.00;76.30;;;;;;4996302;28;20222;-79
2023/05/27 11:49:35;;;;;;;0.10;0.10;;;22.80;77.30;;;;;;4995288;28;20781;-79
2023/05/27 11:52:03;;;;;;;0.30;0.30;;;23.10;78.00;;;;;;4978847;28;20635;-80
2023/05/27 11:54:34;;;;;;;0.30;0.28;;;23.30;76.70;;;;;;4978403;28;20674;-78
2023/05/27 11:57:00;;;;;;;0.10;0.10;;;23.10;79.80;;;;;;4995250;28;20203;-79
2023/05/27 11:59:27;;;;;;;0.10;0.10;;;23.20;77.80;;;;;;4994672;28;20558;-78
2023/05/27 12:01:53;;;;;;;0.00;0.00;;;23.00;78.30;;;;;;5015661;28;20233;-78
2023/05/27 12:04:20;;;;;;;0.10;0.10;;;23.10;76.60;;;;;;5035282;28;20195;-79
2023/05/27 12:06:47;;;;;;;0.10;0.10;;;23.10;76.60;;;;;;5016982;28;20288;-79
2023/05/27 12:09:15;;;;;;;0.15;0.15;;;23.10;78.10;;;;;;5018449;28;20202;-79
2023/05/27 12:11:44;;;;;;;0.20;0.20;;;23.30;80.70;;;;;;5035358;28;20202;-80
2023/05/27 12:14:10;;;;;;;0.10;0.10;;;24.00;79.80;;;;;;5017516;28;20206;-79
2023/05/27 12:16:36;;;;;;;0.15;0.15;;;23.90;76.80;;;;;;5016578;28;20714;-79
2023/05/27 12:19:02;;;;;;;0.30;0.30;;;23.40;76.20;;;;;;5016888;28;20198;-79
2023/05/27 12:21:28;;;;;;;0.00;0.00;;;23.60;79.30;;;;;;5017316;28;20194;-79
2023/05/27 12:23:55;;;;;;;0.32;0.13;;;23.50;78.70;;;;;;5001170;28;20285;-79
2023/05/27 12:26:24;;;;;;;0.05;0.05;;;23.20;77.20;;;;;;5017886;28;20256;-79
2023/05/27 12:28:50;;;;;;;0.00;0.00;;;23.30;79.90;;;;;;5017679;28;20225;-79
2023/05/27 12:31:17;;;;;;;0.10;0.10;;;23.70;78.90;;;;;;5017261;28;20674;-80
2023/05/27 12:33:44;;;;;;;0.03;0.03;;;23.80;77.40;;;;;;5016824;28;20578;-80
2023/05/27 12:36:11;;;;;;;0.45;0.20;;;23.90;78.30;;;;;;5035503;28;20281;-79
2023/05/27 12:38:39;;;;;;;0.00;0.00;;;23.60;77.10;;;;;;5016357;28;20248;-79
2023/05/27 12:41:13;;;;;;;0.10;0.10;;;23.50;80.20;;;;;;5016851;28;20248;-80
2023/05/27 12:43:39;;;;;;;0.10;0.10;;;22.90;78.80;;;;;;5034685;28;20572;-81
2023/05/27 12:46:05;;;;;;;0.30;0.20;;;23.50;81.90;;;;;;5034991;28;20197;-79
2023/05/27 12:48:34;;;;;;;0.35;0.20;;;23.40;79.70;;;;;;5035032;28;20567;-80
2023/05/27 12:51:03;;;;;;;0.38;0.10;;;23.70;75.90;;;;;;5017310;28;20290;-80
2023/05/27 12:53:28;;;;;;;0.15;0.10;;;23.70;77.60;;;;;;5035221;28;20206;-80